createdAt,value
2019-01-05T00:01:07.263Z,14.57
2019-01-05T00:03:46.679Z,14.30
2019-01-05T00:06:31.567Z,15.60
2019-01-05T00:09:20.607Z,14.07
2019-01-05T00:11:59.792Z,15.47
2019-01-05T00:14:31.363Z,15.97
2019-01-05T00:17:20.053Z,15.47
2019-01-05T00:20:13.495Z,15.90
2019-01-05T00:23:02.660Z,14.67
2019-01-05T00:25:54.746Z,16.80
2019-01-05T00:28:42.945Z,15.47
2019-01-05T00:31:33.055Z,15.80
2019-01-05T00:34:24.806Z,15.70
2019-01-05T00:37:04.173Z,15.00
2019-01-05T00:39:55.338Z,15.03
2019-01-05T00:42:35.139Z,16.97
2019-01-05T00:45:11.589Z,15.73
2019-01-05T00:47:57.856Z,16.07
2019-01-05T00:50:49.518Z,16.30
2019-01-05T00:53:28.801Z,15.50
2019-01-05T00:56:09.449Z,16.37
2019-01-05T00:58:56.825Z,14.23
2019-01-05T01:01:42.458Z,14.47
2019-01-05T01:04:20.915Z,15.53
2019-01-05T01:07:09.048Z,15.27
2019-01-05T01:09:44.678Z,15.43
2019-01-05T01:12:18.612Z,14.37
2019-01-05T01:14:51.711Z,15.60
2019-01-05T01:17:33.314Z,16.00
2019-01-05T01:20:22.234Z,14.60
2019-01-05T01:22:58.402Z,15.40
2019-01-05T01:25:47.760Z,13.97
2019-01-05T01:28:36.926Z,15.07
2019-01-05T01:31:16.276Z,13.97
2019-01-05T01:33:53.379Z,12.93
2019-01-05T01:36:35.470Z,13.37
2019-01-05T01:39:09.202Z,14.53
2019-01-05T01:41:59.287Z,14.70
2019-01-05T01:44:47.886Z,13.10
2019-01-05T01:47:23.331Z,10.77
2019-01-05T01:50:12.651Z,12.77
2019-01-05T01:52:56.443Z,14.60
2019-01-05T01:55:45.650Z,13.87
2019-01-05T01:58:25.813Z,14.27
2019-01-05T02:01:15.263Z,13.40
2019-01-05T02:03:54.694Z,12.37
2019-01-05T02:06:29.839Z,13.13
2019-01-05T02:09:07.885Z,13.30
2019-01-05T02:11:53.618Z,13.67
2019-01-05T02:14:46.497Z,13.53
2019-01-05T02:17:35.442Z,14.23
2019-01-05T02:20:18.932Z,13.40
2019-01-05T02:23:05.304Z,13.70
2019-01-05T02:26:04.686Z,13.07
2019-01-05T02:28:53.794Z,14.63
2019-01-05T02:31:37.064Z,13.57
2019-01-05T02:34:43.231Z,16.03
2019-01-05T02:37:54.526Z,16.50
2019-01-05T02:41:02.140Z,15.40
2019-01-05T02:43:54.751Z,16.17
2019-01-05T02:46:36.032Z,17.57
2019-01-05T02:49:48.326Z,17.70
2019-01-05T02:52:43.700Z,18.37
2019-01-05T02:55:58.482Z,17.73
2019-01-05T02:59:22.651Z,17.30
2019-01-05T03:02:41.327Z,18.10
2019-01-05T03:05:36.710Z,17.70
2019-01-05T03:08:52.976Z,18.93
2019-01-05T03:11:57.714Z,19.10
2019-01-05T03:14:50.324Z,19.43
2019-01-05T03:18:11.807Z,19.03
2019-01-05T03:21:27.290Z,18.77
2019-01-05T03:24:22.877Z,16.10
2019-01-05T03:27:37.189Z,15.77
2019-01-05T03:30:28.922Z,14.37
2019-01-05T03:33:11.798Z,15.07
2019-01-05T03:36:25.038Z,14.37
2019-01-05T03:39:37.657Z,15.10
2019-01-05T03:42:56.168Z,14.20
2019-01-05T03:46:25.634Z,14.97
2019-01-05T03:49:17.662Z,14.90
2019-01-05T03:52:22.499Z,16.73
2019-01-05T03:55:34.618Z,16.13
2019-01-05T03:58:33.028Z,15.97
2019-01-05T04:01:19.051Z,14.70
2019-01-05T04:04:14.403Z,15.93
2019-01-05T04:07:26.674Z,15.70
2019-01-05T04:10:38.235Z,15.67
2019-01-05T04:13:56.481Z,15.40
2019-01-05T04:16:57.561Z,14.03
2019-01-05T04:19:57.291Z,12.40
2019-01-05T04:23:13.241Z,14.37
2019-01-05T04:26:40.572Z,12.17
2019-01-05T04:29:42.354Z,11.97
2019-01-05T04:32:47.067Z,10.43
2019-01-05T04:35:54.770Z,11.27
2019-01-05T04:39:13.293Z,10.80
2019-01-05T04:42:45.810Z,9.83
2019-01-05T04:45:48.583Z,10.97
2019-01-05T04:48:53.123Z,9.80
2019-01-05T04:52:10.876Z,9.73
2019-01-05T04:55:40.876Z,9.63
2019-01-05T04:58:51.878Z,9.47
2019-01-05T05:01:51.898Z,10.27
2019-01-05T05:05:02.673Z,9.93
2019-01-05T05:08:33.312Z,9.10
2019-01-05T05:11:28.437Z,8.87
2019-01-05T05:14:50.197Z,8.67
2019-01-05T05:18:21.130Z,9.03
2019-01-05T05:25:04.575Z,9.13
2019-01-05T05:28:16.492Z,8.50
2019-01-05T05:31:28.394Z,8.60
2019-01-05T05:35:02.686Z,8.50
2019-01-05T05:38:16.646Z,7.97
2019-01-05T05:41:14.701Z,7.47
2019-01-05T05:44:07.367Z,6.63
2019-01-05T05:47:05.833Z,7.43
2019-01-05T05:50:01.246Z,6.90
2019-01-05T05:53:15.206Z,7.20
2019-01-05T05:56:44.380Z,8.07
2019-01-05T06:00:08.487Z,6.23
2019-01-05T06:03:31.614Z,7.00
2019-01-05T06:06:30.912Z,7.13
2019-01-05T06:09:44.407Z,6.87
2019-01-05T06:12:40.894Z,4.77
2019-01-05T06:16:09.305Z,5.37
2019-01-05T06:19:32.644Z,5.90
2019-01-05T06:22:51.176Z,5.03
2019-01-05T06:26:12.078Z,5.23
2019-01-05T06:29:29.084Z,5.27
2019-01-05T06:33:00.824Z,4.07
2019-01-05T06:36:06.408Z,4.27
2019-01-05T06:39:17.541Z,3.50
2019-01-05T06:42:49.071Z,3.00
2019-01-05T06:46:13.033Z,2.90
2019-01-05T06:49:12.948Z,3.03
2019-01-05T06:52:11.827Z,2.97
2019-01-05T06:55:16.152Z,2.90
2019-01-05T06:58:45.098Z,3.10
2019-01-05T07:01:50.753Z,3.23
2019-01-05T07:05:16.171Z,3.70
2019-01-05T07:08:21.002Z,3.43
2019-01-05T07:11:26.758Z,4.07
2019-01-05T07:14:36.315Z,4.60
2019-01-05T07:18:03.611Z,4.37
2019-01-05T07:20:56.196Z,4.63
2019-01-05T07:24:06.587Z,4.53
2019-01-05T07:27:39.095Z,4.63
2019-01-05T07:31:02.091Z,4.83
2019-01-05T07:34:17.343Z,5.03
2019-01-05T07:37:47.374Z,4.20
2019-01-05T07:41:04.722Z,4.80
2019-01-05T07:44:21.123Z,4.70
2019-01-05T07:48:01.762Z,4.17
2019-01-05T07:51:21.718Z,4.83
2019-01-05T07:54:37.371Z,4.90
2019-01-05T07:57:32.474Z,4.80
2019-01-05T08:00:30.118Z,5.00
2019-01-05T08:03:20.565Z,4.50
2019-01-05T08:07:01.689Z,4.40
2019-01-05T08:10:11.142Z,5.03
2019-01-05T08:13:32.580Z,4.50
2019-01-05T08:16:38.857Z,5.23
2019-01-05T08:19:46.872Z,5.20
2019-01-05T08:22:53.006Z,4.70
2019-01-05T08:25:57.535Z,4.67
2019-01-05T08:29:26.432Z,4.20
2019-01-05T08:32:24.708Z,4.73
2019-01-05T08:35:10.962Z,4.27
2019-01-05T08:38:41.769Z,4.67
2019-01-05T08:41:43.271Z,3.73
2019-01-05T08:44:48.735Z,4.23
2019-01-05T08:47:57.576Z,4.60
2019-01-05T08:51:02.392Z,4.93
2019-01-05T08:54:31.292Z,5.43
2019-01-05T08:58:17.102Z,5.07
2019-01-05T09:01:33.704Z,4.67
2019-01-05T09:04:47.611Z,4.90
2019-01-05T09:07:43.917Z,4.63
2019-01-05T09:10:48.320Z,4.67
2019-01-05T09:14:09.729Z,4.37
2019-01-05T09:17:22.036Z,4.17
2019-01-05T09:20:21.748Z,4.37
2019-01-05T09:23:03.053Z,4.30
2019-01-05T09:25:51.962Z,21.83
2019-01-05T09:29:25.654Z,3.80
2019-01-05T09:32:31.459Z,4.83
2019-01-05T09:35:51.363Z,3.73
2019-01-05T09:39:00.401Z,3.63
2019-01-05T09:42:14.854Z,2.93
2019-01-05T09:45:27.083Z,2.87
2019-01-05T09:48:37.619Z,3.10
2019-01-05T09:52:09.965Z,2.60
2019-01-05T09:55:53.990Z,3.37
2019-01-05T09:59:22.400Z,3.67
2019-01-05T10:02:31.587Z,2.57
2019-01-05T10:05:37.113Z,3.20
2019-01-05T10:08:40.213Z,3.33
2019-01-05T10:11:55.822Z,3.50
2019-01-05T10:15:15.361Z,3.87
2019-01-05T10:17:58.443Z,4.73
2019-01-05T10:21:04.540Z,4.40
2019-01-05T10:24:24.802Z,3.25
2019-01-05T10:27:32.566Z,3.70
2019-01-05T10:30:34.329Z,3.98
2019-01-05T10:33:39.239Z,4.58
2019-01-05T10:36:46.515Z,3.73
2019-01-05T10:39:47.908Z,2.95
2019-01-05T10:42:59.730Z,3.50
2019-01-05T10:45:59.739Z,3.25
2019-01-05T10:49:32.928Z,4.00
2019-01-05T10:52:22.104Z,4.50
2019-01-05T10:55:34.754Z,4.17
2019-01-05T10:59:03.443Z,4.80
2019-01-05T11:02:19.089Z,5.40
2019-01-05T11:05:20.702Z,4.58
2019-01-05T11:08:38.642Z,5.10
2019-01-05T11:11:46.227Z,5.47
2019-01-05T11:14:47.804Z,4.90
2019-01-05T11:17:52.359Z,5.27
2019-01-05T11:21:20.360Z,4.17
2019-01-05T11:24:27.632Z,4.80
2019-01-05T11:28:02.735Z,4.42
2019-01-05T11:31:28.896Z,4.10
2019-01-05T11:34:47.061Z,4.67
2019-01-05T11:38:02.276Z,5.60
2019-01-05T11:40:48.377Z,4.90
2019-01-05T11:44:05.698Z,3.70
2019-01-05T11:47:20.342Z,4.55
2019-01-05T11:50:49.587Z,3.22
2019-01-05T11:54:12.075Z,3.70
2019-01-05T11:57:30.940Z,4.33
2019-01-05T12:00:37.034Z,3.80
2019-01-05T12:03:42.700Z,4.45
2019-01-05T12:06:45.994Z,4.00
2019-01-05T12:10:00.276Z,3.80
2019-01-05T12:13:30.839Z,4.60
2019-01-05T12:16:21.182Z,4.10
2019-01-05T12:19:05.802Z,3.50
2019-01-05T12:22:33.498Z,4.12
2019-01-05T12:25:34.851Z,4.00
2019-01-05T12:29:14.885Z,3.58
2019-01-05T12:32:21.140Z,3.93
2019-01-05T12:35:29.875Z,4.00
2019-01-05T12:38:39.045Z,3.70
2019-01-05T12:42:04.826Z,4.20
2019-01-05T12:45:03.119Z,3.97
2019-01-05T12:48:12.512Z,3.53
2019-01-05T12:51:29.220Z,3.58
2019-01-05T12:55:08.283Z,3.77
2019-01-05T12:58:08.274Z,3.60
2019-01-05T13:01:29.857Z,4.10
2019-01-05T13:04:45.183Z,3.90
2019-01-05T13:07:51.480Z,4.53
2019-01-05T13:10:54.241Z,4.05
2019-01-05T13:13:31.910Z,3.47
2019-01-05T13:16:33.510Z,4.55
2019-01-05T13:19:41.068Z,3.52
2019-01-05T13:22:38.921Z,4.00
2019-01-05T13:25:43.599Z,4.00
2019-01-05T13:28:33.456Z,3.95
2019-01-05T13:31:37.881Z,3.67
2019-01-05T13:35:08.068Z,3.42
2019-01-05T13:41:54.777Z,3.60
2019-01-05T13:45:08.248Z,3.47
2019-01-05T13:48:05.571Z,3.50
2019-01-05T13:51:04.051Z,3.45
2019-01-05T13:53:41.580Z,3.83
2019-01-05T13:56:18.311Z,4.73
2019-01-05T13:59:03.126Z,4.80
2019-01-05T14:01:53.137Z,4.42
2019-01-05T14:04:42.331Z,5.03
2019-01-05T14:07:33.982Z,4.15
2019-01-05T14:10:18.951Z,3.90
2019-01-05T14:12:56.025Z,4.00
2019-01-05T14:15:31.666Z,3.60
2019-01-05T14:18:04.878Z,4.83
2019-01-05T14:20:36.022Z,4.10
2019-01-05T14:23:14.973Z,4.60
2019-01-05T14:25:56.813Z,4.17
2019-01-05T14:28:37.035Z,4.00
2019-01-05T14:31:13.293Z,3.52
2019-01-05T14:37:21.827Z,4.92
2019-01-05T14:40:03.843Z,3.52
2019-01-05T14:42:38.228Z,4.00
2019-01-05T14:45:29.710Z,4.00
2019-01-05T14:48:01.151Z,4.23
2019-01-05T14:50:55.136Z,4.05
2019-01-05T14:53:40.543Z,3.02
2019-01-05T14:56:16.150Z,3.80
2019-01-05T14:58:49.202Z,4.00
2019-01-05T15:01:38.804Z,3.60
2019-01-05T15:04:20.913Z,3.30
2019-01-05T15:07:10.402Z,4.22
2019-01-05T15:09:59.215Z,2.77
2019-01-05T15:12:32.300Z,3.47
2019-01-05T15:15:17.997Z,4.33
2019-01-05T15:18:07.176Z,4.43
2019-01-05T15:20:55.237Z,3.67
2019-01-05T15:23:28.112Z,2.77
2019-01-05T15:26:17.785Z,3.02
2019-01-05T15:29:06.023Z,3.17
2019-01-05T15:31:57.148Z,3.25
2019-01-05T15:34:39.655Z,2.65
2019-01-05T15:37:24.710Z,2.40
2019-01-05T15:40:01.601Z,2.65
2019-01-05T15:42:43.504Z,3.20
2019-01-05T15:45:31.955Z,3.80
2019-01-05T15:48:07.173Z,3.00
2019-01-05T15:50:50.842Z,3.37
2019-01-05T15:53:27.762Z,2.80
2019-01-05T15:56:05.237Z,2.83
2019-01-05T15:58:44.287Z,3.00
2019-01-05T16:01:33.826Z,2.95
2019-01-05T16:04:27.220Z,3.30
2019-01-05T16:07:12.974Z,4.55
2019-01-05T16:09:54.147Z,4.50
2019-01-05T16:12:46.132Z,3.72
2019-01-05T16:15:26.207Z,2.72
2019-01-05T16:18:12.940Z,2.77
2019-01-05T16:20:50.823Z,3.20
2019-01-05T16:23:42.010Z,3.40
2019-01-05T16:26:32.846Z,3.12
2019-01-05T16:29:06.714Z,3.65
2019-01-05T16:31:56.420Z,2.92
2019-01-05T16:34:46.165Z,2.70
2019-01-05T16:37:23.134Z,2.40
2019-01-05T16:39:58.234Z,2.00
2019-01-05T16:42:56.032Z,2.10
2019-01-05T16:45:45.854Z,2.85
2019-01-05T16:48:29.448Z,2.77
2019-01-05T16:51:20.040Z,2.95
2019-01-05T16:53:56.716Z,3.00
2019-01-05T16:56:48.350Z,2.30
2019-01-05T16:59:38.116Z,1.87
2019-01-05T17:02:28.439Z,2.72
2019-01-05T17:05:12.241Z,2.50
2019-01-05T17:07:49.788Z,2.30
2019-01-05T17:10:23.342Z,2.10
2019-01-05T17:13:00.141Z,2.20
2019-01-05T17:15:49.819Z,2.40
2019-01-05T17:18:21.257Z,2.70
2019-01-05T17:21:03.214Z,2.08
2019-01-05T17:23:52.265Z,2.58
2019-01-05T17:26:34.199Z,3.15
2019-01-05T17:29:10.124Z,2.50
2019-01-05T17:32:01.210Z,2.52
2019-01-05T17:34:43.153Z,2.95
2019-01-05T17:37:20.318Z,3.55
2019-01-05T17:39:53.382Z,2.90
2019-01-05T17:42:28.712Z,3.17
2019-01-05T17:45:05.615Z,2.75
2019-01-05T17:47:38.841Z,2.60
2019-01-05T17:50:17.710Z,2.60
2019-01-05T17:52:50.032Z,2.62
2019-01-05T17:55:28.513Z,3.40
2019-01-05T17:58:04.491Z,2.37
2019-01-05T18:00:56.072Z,2.50
2019-01-05T18:03:38.368Z,1.60
2019-01-05T18:06:17.391Z,2.08
2019-01-05T18:09:02.828Z,3.80
2019-01-05T18:11:39.927Z,2.00
2019-01-05T18:14:25.009Z,1.75
2019-01-05T18:16:58.082Z,2.30
2019-01-05T18:19:34.317Z,1.60
2019-01-05T18:22:11.509Z,1.87
2019-01-05T18:24:44.622Z,2.10
2019-01-05T18:27:35.438Z,2.10
2019-01-05T18:30:21.940Z,1.95
2019-01-05T18:32:54.867Z,2.00
2019-01-05T18:35:36.903Z,1.70
2019-01-05T18:38:23.292Z,1.72
2019-01-05T18:41:12.552Z,1.80
2019-01-05T18:44:01.772Z,1.73
2019-01-05T18:46:37.956Z,1.72
2019-01-05T18:49:13.689Z,1.65
2019-01-05T18:51:49.824Z,2.25
2019-01-05T18:54:21.012Z,1.87
2019-01-05T18:56:53.995Z,2.00
2019-01-05T18:59:39.261Z,1.92
2019-01-05T19:02:14.093Z,1.40
2019-01-05T19:05:08.277Z,1.87
2019-01-05T19:07:50.367Z,1.80
2019-01-05T19:10:23.487Z,2.10
2019-01-05T19:13:02.359Z,1.37
2019-01-05T19:15:35.449Z,2.00
2019-01-05T19:18:28.048Z,2.40
2019-01-05T19:21:06.658Z,2.22
2019-01-05T19:23:48.068Z,1.90
2019-01-05T19:26:25.235Z,2.00
2019-01-05T19:29:14.546Z,2.23
2019-01-05T19:31:52.026Z,2.00
2019-01-05T19:34:30.896Z,1.72
2019-01-05T19:37:03.916Z,2.20
2019-01-05T19:39:56.136Z,2.53
2019-01-05T19:42:31.984Z,2.50
2019-01-05T19:45:21.729Z,1.80
2019-01-05T19:48:01.997Z,2.17
2019-01-05T19:50:35.077Z,2.77
2019-01-05T19:53:11.013Z,2.70
2019-01-05T19:55:46.574Z,1.70
2019-01-05T19:58:34.800Z,1.80
2019-01-05T20:01:07.999Z,2.25
2019-01-05T20:03:45.644Z,1.62
2019-01-05T20:06:35.500Z,1.98
2019-01-05T20:09:09.505Z,1.40
2019-01-05T20:11:45.447Z,1.47
2019-01-05T20:14:24.480Z,1.90
2019-01-05T20:16:58.460Z,2.20
2019-01-05T20:19:47.930Z,1.80
2019-01-05T20:22:26.495Z,2.00
2019-01-05T20:25:03.937Z,1.60
2019-01-05T20:27:53.793Z,1.73
2019-01-05T20:30:26.959Z,1.70
2019-01-05T20:33:07.309Z,1.65
2019-01-05T20:35:44.469Z,1.70
2019-01-05T20:38:33.989Z,1.70
2019-01-05T20:41:27.794Z,1.75
2019-01-05T20:44:02.484Z,1.30
2019-01-05T20:46:40.751Z,1.50
2019-01-05T20:49:15.013Z,1.65
2019-01-05T20:52:05.162Z,2.40
2019-01-05T20:54:38.291Z,2.20
2019-01-05T20:57:26.100Z,1.87
2019-01-05T21:00:15.571Z,2.05
2019-01-05T21:02:57.459Z,2.62
2019-01-05T21:05:30.576Z,2.40
2019-01-05T21:08:19.787Z,2.42
2019-01-05T21:11:08.891Z,2.17
2019-01-05T21:13:58.294Z,2.80
2019-01-05T21:16:43.661Z,2.02
2019-01-05T21:19:19.275Z,1.67
2019-01-05T21:22:08.641Z,1.70
2019-01-05T21:24:57.769Z,1.40
2019-01-05T21:27:46.939Z,1.25
2019-01-05T21:30:35.499Z,1.60
2019-01-05T21:33:12.575Z,1.05
2019-01-05T21:35:48.730Z,1.37
2019-01-05T21:38:40.014Z,1.27
2019-01-05T21:41:31.854Z,1.50
2019-01-05T21:44:05.110Z,1.62
2019-01-05T21:46:46.705Z,1.40
2019-01-05T21:49:36.179Z,1.80
2019-01-05T21:52:13.060Z,2.23
2019-01-05T21:54:58.438Z,3.15
2019-01-05T21:57:32.487Z,1.60
2019-01-05T22:00:23.164Z,2.10
2019-01-05T22:02:56.224Z,1.80
2019-01-05T22:05:32.521Z,1.50
2019-01-05T22:08:15.940Z,1.17
2019-01-05T22:10:48.981Z,1.45
2019-01-05T22:13:38.455Z,1.90
2019-01-05T22:16:28.137Z,1.98
2019-01-05T22:19:01.113Z,1.70
2019-01-05T22:21:50.355Z,2.40
2019-01-05T22:24:21.497Z,1.70
2019-01-05T22:27:05.062Z,2.05
2019-01-05T22:29:54.119Z,2.33
2019-01-05T22:32:33.007Z,2.72
2019-01-05T22:35:22.206Z,2.67
2019-01-05T22:38:04.260Z,2.00
2019-01-05T22:40:40.036Z,2.60
2019-01-05T22:43:28.405Z,2.50
2019-01-05T22:46:01.417Z,1.87
2019-01-05T22:48:36.551Z,1.70
2019-01-05T22:51:10.511Z,1.80
2019-01-05T22:53:55.520Z,1.87
2019-01-05T22:56:31.038Z,1.47
2019-01-05T22:59:19.314Z,1.80
2019-01-05T23:01:58.384Z,1.30
2019-01-05T23:08:11.036Z,1.10
2019-01-05T23:10:45.973Z,1.67
2019-01-05T23:13:37.177Z,1.50
2019-01-05T23:16:33.151Z,1.30
2019-01-05T23:19:07.860Z,1.37
2019-01-05T23:21:56.997Z,1.70
2019-01-05T23:24:30.040Z,1.85
2019-01-05T23:27:15.166Z,1.70
2019-01-05T23:29:48.149Z,1.55
2019-01-05T23:32:19.314Z,1.87
2019-01-05T23:34:56.672Z,1.70
2019-01-05T23:37:31.564Z,2.77
2019-01-05T23:40:04.755Z,1.77
2019-01-05T23:42:54.067Z,2.00
2019-01-05T23:45:32.879Z,1.60
2019-01-05T23:48:24.066Z,1.40
2019-01-05T23:50:58.172Z,1.77
2019-01-05T23:53:37.096Z,1.70
2019-01-05T23:56:26.571Z,1.70
2019-01-05T23:58:57.713Z,1.70
